Time;durP1;ratioP1;P1;durP2;ratioP2;P2;SDS_P1;SDS_P2;PMS_P1;PMS_P2;Temp;Humidity;BMP_temperature;BMP_pressure;BME280_temperature;BME280_humidity;BME280_pressure;Samples;Min_cycle;Max_cycle;Signal;HPM_P1;HPM_P2
2023/11/07 00:00:25;;;;;;;2.80;1.50;;;;;;;9.49;68.84;99008.95;107311;1254;72721;-35
2023/11/07 00:02:53;;;;;;;2.60;1.70;;;;;;;9.45;69.01;99014.61;107316;1254;60507;-35
2023/11/07 00:05:22;;;;;;;2.60;1.60;;;;;;;9.41;69.05;99014.15;107356;1253;60406;-36
2023/11/07 00:07:49;;;;;;;2.40;1.40;;;;;;;9.37;69.14;99016.23;107336;1259;73900;-35
2023/11/07 00:10:17;;;;;;;3.70;2.10;;;;;;;9.37;69.27;99018.71;107370;1253;66756;-35
2023/11/07 00:12:44;;;;;;;3.50;2.10;;;;;;;9.37;69.15;99017.33;107334;1257;72661;-35
2023/11/07 00:15:13;;;;;;;3.10;1.70;;;;;;;9.33;69.24;99018.11;107350;1259;60319;-36
2023/11/07 00:17:41;;;;;;;2.50;1.90;;;;;;;9.28;69.34;99018.31;107456;1256;60380;-35
2023/11/07 00:20:10;;;;;;;4.60;2.00;;;;;;;9.22;69.51;99020.45;107374;1259;73919;-36
2023/11/07 00:22:38;;;;;;;4.10;1.90;;;;;;;9.15;69.78;99020.87;107367;1259;66813;-35
2023/11/07 00:25:06;;;;;;;5.80;1.80;;;;;;;9.08;69.97;99016.11;107367;1254;71466;-35
2023/11/07 00:27:34;;;;;;;4.40;1.70;;;;;;;9.09;69.92;99022.21;107351;1259;61672;-36
2023/11/07 00:30:01;;;;;;;4.40;2.20;;;;;;;9.09;70.00;99027.55;107393;1259;60383;-34
2023/11/07 00:32:30;;;;;;;4.00;1.50;;;;;;;9.05;70.10;99024.92;107363;1255;73926;-35
2023/11/07 00:34:58;;;;;;;3.60;2.00;;;;;;;8.99;70.24;99027.89;107353;1259;66959;-35
2023/11/07 00:37:26;;;;;;;2.60;1.80;;;;;;;8.94;70.37;99034.23;107262;1259;72687;-35
2023/11/07 00:39:54;;;;;;;4.00;1.80;;;;;;;8.88;70.57;99038.18;107190;1254;60366;-35
2023/11/07 00:42:21;;;;;;;5.00;1.90;;;;;;;8.83;70.79;99039.63;107268;1259;60399;-35
2023/11/07 00:44:49;;;;;;;4.10;1.70;;;;;;;8.84;70.92;99043.57;107265;1254;74036;-36
2023/11/07 00:47:17;;;;;;;3.30;1.60;;;;;;;8.86;70.82;99043.31;107364;1259;67846;-36
2023/11/07 00:49:45;;;;;;;2.00;1.50;;;;;;;8.83;71.01;99044.48;107362;1259;72687;-36
2023/11/07 00:52:12;;;;;;;5.20;2.10;;;;;;;8.79;71.12;99046.88;107450;1255;60303;-36
2023/11/07 00:54:40;;;;;;;4.60;2.00;;;;;;;8.74;71.38;99049.02;107515;1260;59226;-36
2023/11/07 00:57:09;;;;;;;3.20;1.90;;;;;;;8.69;71.44;99050.92;107496;1254;73862;-36
2023/11/07 00:59:37;;;;;;;3.00;1.80;;;;;;;8.64;71.59;99058.06;107575;1259;67755;-36
2023/11/07 01:02:06;;;;;;;5.90;2.10;;;;;;;8.63;71.56;99059.11;107523;1254;71426;-36
2023/11/07 01:04:33;;;;;;;5.80;2.20;;;;;;;8.64;71.63;99055.20;107514;1253;59594;-36
2023/11/07 01:07:02;;;;;;;7.20;2.90;;;;;;;8.59;71.75;99055.18;107590;1255;60749;-36
2023/11/07 01:09:30;;;;;;;5.20;2.60;;;;;;;8.57;71.88;99065.00;107524;1259;71516;-36
2023/11/07 01:11:57;;;;;;;6.00;2.80;;;;;;;8.52;71.95;99063.67;106759;1258;1002974;-36
2023/11/07 01:14:25;;;;;;;7.80;2.40;;;;;;;8.48;72.12;99064.10;107548;1259;72701;-36
2023/11/07 01:16:53;;;;;;;5.10;2.10;;;;;;;8.48;72.22;99062.80;107496;1255;60409;-34
2023/11/07 01:19:20;;;;;;;4.10;2.10;;;;;;;8.51;72.14;99063.73;107483;1253;60399;-35
2023/11/07 01:21:48;;;;;;;4.70;2.10;;;;;;;8.49;72.26;99066.61;107413;1254;72885;-35
2023/11/07 01:24:16;;;;;;;4.90;2.30;;;;;;;8.47;72.35;99062.92;107459;1259;66614;-35
2023/11/07 01:26:45;;;;;;;4.00;2.10;;;;;;;8.42;72.45;99064.84;107541;1254;71476;-35
2023/11/07 01:29:13;;;;;;;3.90;2.10;;;;;;;8.40;72.53;99060.38;107503;1259;61724;-35
2023/11/07 01:31:41;;;;;;;4.40;1.90;;;;;;;8.42;72.58;99063.75;107475;1255;58743;-35
2023/11/07 01:34:09;;;;;;;7.10;2.00;;;;;;;8.47;72.40;99064.94;107446;1260;72994;-35
2023/11/07 01:36:37;;;;;;;3.50;2.10;;;;;;;8.46;72.57;99069.71;107510;1253;67560;-35
2023/11/07 01:39:05;;;;;;;4.70;2.50;;;;;;;8.42;72.70;99073.10;107481;1254;71771;-35
2023/11/07 01:41:33;;;;;;;4.60;2.60;;;;;;;8.38;72.84;99072.90;107405;1260;60537;-35
2023/11/07 01:44:01;;;;;;;4.40;2.30;;;;;;;8.34;72.79;99077.45;107398;1260;60312;-35
2023/11/07 01:46:29;;;;;;;6.60;3.10;;;;;;;8.36;72.84;99084.36;107479;1259;72536;-35
2023/11/07 01:48:56;;;;;;;6.60;3.40;;;;;;;8.39;72.74;99081.35;107502;1258;67897;-35
2023/11/07 01:51:24;;;;;;;6.50;3.00;;;;;;;8.38;72.86;99083.56;107381;1254;72844;-35
2023/11/07 01:53:52;;;;;;;3.50;2.30;;;;;;;8.32;72.97;99084.82;107288;1257;60543;-35
2023/11/07 01:56:22;;;;;;;2.80;1.70;;;;;;;8.27;72.92;99087.54;107498;1256;60494;-36
2023/11/07 01:58:50;;;;;;;4.70;2.20;;;;;;;8.20;72.90;99092.92;107336;1260;72551;-35
2023/11/07 02:01:18;;;;;;;3.50;1.80;;;;;;;8.13;72.99;99095.16;107499;1255;66743;-35
2023/11/07 02:03:46;;;;;;;4.20;1.80;;;;;;;8.12;73.03;99101.70;107361;1260;72640;-35
2023/11/07 02:06:13;;;;;;;3.80;2.00;;;;;;;8.12;73.08;99104.08;107326;1259;60536;-35
2023/11/07 02:08:41;;;;;;;4.20;2.20;;;;;;;8.07;73.41;99108.34;107407;1254;60418;-35
2023/11/07 02:11:09;;;;;;;6.10;2.00;;;;;;;8.00;73.69;99111.80;107316;1254;73956;-35
2023/11/07 02:13:36;;;;;;;5.10;2.10;;;;;;;7.94;73.85;99111.02;107337;1259;66509;-35
2023/11/07 02:16:05;;;;;;;2.40;1.90;;;;;;;7.87;74.05;99109.15;107320;1259;72692;-35
2023/11/07 02:18:32;;;;;;;6.20;1.80;;;;;;;7.85;74.25;99110.65;107453;1254;61671;-35
2023/11/07 02:21:01;;;;;;;4.40;2.20;;;;;;;7.87;74.27;99115.26;107543;1255;60181;-35
2023/11/07 02:23:29;;;;;;;4.40;2.30;;;;;;;7.83;74.63;99115.68;107517;1259;73815;-35
2023/11/07 02:25:57;;;;;;;7.50;3.00;;;;;;;7.77;75.01;99119.31;107456;1258;67563;-35
2023/11/07 02:28:25;;;;;;;8.30;3.10;;;;;;;7.72;75.67;99121.09;107419;1254;71388;-35
2023/11/07 02:30:54;;;;;;;4.50;1.90;;;;;;;7.72;76.10;99125.80;106733;1254;1003083;-35
2023/11/07 02:33:21;;;;;;;5.10;2.10;;;;;;;7.80;76.33;99128.47;107464;1255;60369;-35
2023/11/07 02:35:49;;;;;;;3.90;2.10;;;;;;;7.87;76.51;99130.81;107407;1254;73870;-35
2023/11/07 02:38:19;;;;;;;3.50;2.00;;;;;;;7.90;76.51;99132.42;107349;1258;67558;-36
2023/11/07 02:40:49;;;;;;;;;;;;;;;7.92;76.47;99135.04;107497;1254;73823;-36
2023/11/07 02:43:16;;;;;;;4.80;2.20;;;;;;;7.95;76.47;99139.27;107300;1260;61904;-36
2023/11/07 02:45:44;;;;;;;3.60;2.20;;;;;;;8.00;76.22;99145.73;107479;1259;59662;-36
2023/11/07 02:48:12;;;;;;;3.40;1.90;;;;;;;8.07;75.98;99149.99;107303;1254;73837;-36
2023/11/07 02:50:40;;;;;;;4.70;2.50;;;;;;;8.07;75.96;99148.85;107338;1254;65855;-36
2023/11/07 02:53:08;;;;;;;5.70;2.30;;;;;;;8.04;75.96;99155.72;107328;1259;72725;-36
2023/11/07 02:55:35;;;;;;;5.00;2.00;;;;;;;8.01;75.99;99161.27;107391;1255;60389;-36
2023/11/07 02:58:03;;;;;;;3.20;2.20;;;;;;;8.03;75.85;99161.55;107325;1254;60309;-36
2023/11/07 03:00:31;;;;;;;6.40;2.00;;;;;;;8.09;75.69;99166.11;107361;1255;73933;-36
2023/11/07 03:02:59;;;;;;;4.70;1.90;;;;;;;8.10;75.63;99166.35;107445;1259;67733;-36
2023/11/07 03:05:26;;;;;;;5.10;2.00;;;;;;;8.06;75.80;99167.86;107347;1254;72806;-36
2023/11/07 03:07:54;;;;;;;3.60;1.80;;;;;;;8.02;75.88;99171.70;107346;1254;59693;-36
2023/11/07 03:10:21;;;;;;;3.00;1.80;;;;;;;7.98;75.89;99176.93;107367;1254;60529;-36
2023/11/07 03:12:49;;;;;;;4.00;2.00;;;;;;;8.01;75.96;99178.22;107316;1259;72927;-36
2023/11/07 03:15:17;;;;;;;3.50;1.80;;;;;;;8.01;75.93;99184.66;107379;1258;67611;-36
2023/11/07 03:17:45;;;;;;;3.50;1.80;;;;;;;7.98;76.01;99187.02;107393;1257;71498;-35
2023/11/07 03:20:13;;;;;;;3.60;2.10;;;;;;;7.93;76.18;99186.35;107528;1254;60465;-35
2023/11/07 03:22:40;;;;;;;3.30;2.10;;;;;;;7.91;76.27;99189.52;107457;1254;60266;-36
2023/11/07 03:25:09;;;;;;;4.60;1.70;;;;;;;7.93;76.12;99194.99;107558;1260;73852;-35
2023/11/07 03:27:36;;;;;;;3.30;1.80;;;;;;;7.98;75.97;99196.83;107445;1254;66454;-35
2023/11/07 03:30:06;;;;;;;4.20;2.20;;;;;;;7.97;76.01;99199.12;107422;1260;70535;-36
2023/11/07 03:32:34;;;;;;;4.60;2.20;;;;;;;7.95;76.01;99201.98;107376;1259;60453;-35
2023/11/07 03:35:02;;;;;;;11.00;2.80;;;;;;;7.89;76.12;99203.27;107307;1254;60714;-35
2023/11/07 03:37:29;;;;;;;3.50;1.80;;;;;;;7.86;76.20;99213.09;107368;1254;72307;-35
2023/11/07 03:39:57;;;;;;;5.60;2.40;;;;;;;7.88;76.23;99212.35;107320;1260;66381;-35
2023/11/07 03:42:24;;;;;;;5.40;1.80;;;;;;;7.90;76.23;99213.40;107268;1256;72044;-35
2023/11/07 03:44:52;;;;;;;4.10;2.00;;;;;;;7.86;76.30;99215.39;107479;1259;60282;-35
2023/11/07 03:47:21;;;;;;;5.10;2.10;;;;;;;7.79;76.55;99213.89;107484;1254;60415;-35
2023/11/07 03:49:49;;;;;;;4.80;2.00;;;;;;;7.72;76.78;99214.08;107396;1255;72570;-35
2023/11/07 03:52:17;;;;;;;4.80;1.80;;;;;;;7.72;76.84;99219.85;107422;1254;66294;-35
2023/11/07 03:54:44;;;;;;;4.30;2.20;;;;;;;7.73;76.92;99223.36;107339;1255;72754;-35
2023/11/07 03:57:12;;;;;;;5.00;2.50;;;;;;;7.69;77.08;99223.79;107313;1259;59732;-35
2023/11/07 03:59:45;;;;;;;3.40;1.90;;;;;;;7.63;77.32;99233.02;107384;1259;59547;-35
2023/11/07 04:02:12;;;;;;;3.30;2.00;;;;;;;7.58;77.65;99237.04;107561;1254;73854;-35
2023/11/07 04:04:40;;;;;;;5.30;2.00;;;;;;;7.56;77.74;99235.41;107416;1254;67901;-35
2023/11/07 04:07:08;;;;;;;5.00;2.00;;;;;;;7.55;77.66;99233.78;107481;1254;73151;-35
2023/11/07 04:09:37;;;;;;;3.40;2.30;;;;;;;7.55;77.66;99238.13;107453;1254;60841;-35
2023/11/07 04:12:05;;;;;;;3.60;2.00;;;;;;;7.50;77.92;99239.52;107465;1255;59649;-36
2023/11/07 04:14:33;;;;;;;5.10;2.60;;;;;;;7.47;77.99;99245.42;107668;1253;72634;-35
2023/11/07 04:17:04;;;;;;;6.30;1.80;;;;;;;7.44;78.22;99246.97;107592;1254;67619;-35
2023/11/07 04:19:33;;;;;;;3.10;1.80;;;;;;;7.45;78.31;99251.30;107442;1254;72686;-35
2023/11/07 04:22:04;;;;;;;4.20;1.70;;;;;;;7.48;78.39;99254.33;107381;1254;60124;-36
2023/11/07 04:24:31;;;;;;;6.90;1.70;;;;;;;7.46;78.48;99251.63;107418;1253;60449;-36
2023/11/07 04:26:59;;;;;;;5.60;2.00;;;;;;;7.41;78.68;99251.42;107421;1253;73803;-36
2023/11/07 04:29:26;;;;;;;5.00;2.20;;;;;;;7.36;78.97;99254.21;107456;1259;67569;-36
2023/11/07 04:31:54;;;;;;;5.20;2.20;;;;;;;7.39;78.88;99257.23;107539;1259;71374;-36
2023/11/07 04:34:22;;;;;;;5.30;2.10;;;;;;;7.43;78.74;99259.36;107412;1259;60355;-36
2023/11/07 04:36:54;;;;;;;4.10;2.30;;;;;;;7.42;78.71;99258.24;107429;1254;60378;-36
2023/11/07 04:39:22;;;;;;;4.20;2.10;;;;;;;7.39;78.92;99259.06;107526;1254;73870;-36
2023/11/07 04:41:52;;;;;;;5.20;2.40;;;;;;;7.36;79.13;99264.29;107495;1254;67876;-36
2023/11/07 04:44:20;;;;;;;4.60;2.10;;;;;;;7.34;79.14;99266.02;107537;1254;72693;-36
2023/11/07 04:46:47;;;;;;;5.40;2.20;;;;;;;7.38;78.96;99266.28;107430;1260;60470;-36
2023/11/07 04:49:15;;;;;;;4.00;2.30;;;;;;;7.42;78.87;99269.35;107512;1254;60344;-35
2023/11/07 04:51:43;;;;;;;4.20;2.60;;;;;;;7.42;78.83;99270.26;107568;1254;73878;-36
2023/11/07 04:54:11;;;;;;;6.30;2.50;;;;;;;7.37;78.96;99279.30;107521;1254;67541;-36
2023/11/07 04:56:38;;;;;;;4.40;2.20;;;;;;;7.34;79.16;99276.81;107495;1254;72651;-35
2023/11/07 04:59:06;;;;;;;5.70;2.30;;;;;;;7.33;79.13;99277.30;107474;1254;61722;-35
2023/11/07 05:01:34;;;;;;;7.00;2.30;;;;;;;7.36;79.00;99281.64;107486;1254;59650;-35
2023/11/07 05:04:02;;;;;;;4.40;2.40;;;;;;;7.38;79.04;99290.64;107389;1253;74268;-35
2023/11/07 05:06:30;;;;;;;7.10;2.20;;;;;;;7.35;79.28;99295.71;107407;1254;67904;-35
2023/11/07 05:08:58;;;;;;;9.90;2.80;;;;;;;7.31;79.31;99300.81;107477;1254;72970;-35
2023/11/07 05:11:27;;;;;;;5.60;2.50;;;;;;;7.27;79.53;99307.46;107480;1254;61782;-35
2023/11/07 05:13:55;;;;;;;6.10;2.50;;;;;;;7.29;79.54;99311.70;107425;1254;60274;-35
2023/11/07 05:16:22;;;;;;;6.60;2.60;;;;;;;7.32;79.45;99307.01;107483;1253;72904;-35
2023/11/07 05:18:50;;;;;;;6.20;2.90;;;;;;;7.32;79.56;99314.94;107507;1254;66612;-35
2023/11/07 05:21:18;;;;;;;3.90;2.60;;;;;;;7.30;79.94;99315.98;107365;1254;72700;-35
2023/11/07 05:23:46;;;;;;;4.40;2.30;;;;;;;7.27;80.02;99324.88;107410;1254;60870;-35
2023/11/07 05:26:14;;;;;;;4.10;2.70;;;;;;;7.29;79.97;99326.66;107497;1260;60300;-35
2023/11/07 05:28:43;;;;;;;4.30;2.80;;;;;;;7.33;79.92;99332.47;107516;1254;73858;-35
2023/11/07 05:31:10;;;;;;;3.90;2.70;;;;;;;7.32;80.00;99333.44;107522;1254;67574;-35
2023/11/07 05:33:41;;;;;;;3.60;2.20;;;;;;;7.28;80.31;99336.88;107513;1254;73115;-35
2023/11/07 05:36:09;;;;;;;4.80;2.60;;;;;;;7.26;80.40;99339.12;107501;1254;61658;-36
2023/11/07 05:38:36;;;;;;;4.70;2.50;;;;;;;7.31;80.43;99336.03;107491;1254;59575;-36
2023/11/07 05:41:04;;;;;;;5.40;2.10;;;;;;;7.37;80.36;99338.29;107546;1259;72015;-36
2023/11/07 05:43:32;;;;;;;8.30;2.60;;;;;;;7.38;80.46;99342.56;107521;1254;66829;-36
2023/11/07 05:45:59;;;;;;;5.40;2.90;;;;;;;7.36;80.65;99345.90;107498;1254;71136;-36
2023/11/07 05:48:27;;;;;;;7.10;2.60;;;;;;;7.37;80.82;99345.61;107424;1254;61658;-36
2023/11/07 05:50:55;;;;;;;4.80;2.70;;;;;;;7.45;80.71;99348.81;107342;1254;185314;-36
2023/11/07 05:55:14;;;;;;;6.00;2.60;;;;;;;7.59;80.44;99349.52;104029;1295;600349;-35
2023/11/07 05:57:42;;;;;;;3.80;2.40;;;;;;;7.61;80.54;99353.44;106421;1270;60136;-35
2023/11/07 06:00:10;;;;;;;4.90;2.40;;;;;;;7.64;80.46;99364.04;106453;1267;59268;-35
2023/11/07 06:02:38;;;;;;;6.70;2.20;;;;;;;7.73;80.16;99367.21;106546;1272;72746;-35
2023/11/07 06:05:06;;;;;;;5.10;2.60;;;;;;;7.82;79.77;99377.30;106561;1272;67586;-35
2023/11/07 06:07:34;;;;;;;7.20;2.50;;;;;;;7.88;79.54;99379.23;106576;1270;71830;-35
2023/11/07 06:10:03;;;;;;;3.80;2.20;;;;;;;7.89;79.29;99379.97;106573;1265;186608;-35
2023/11/07 06:12:30;;;;;;;6.60;2.30;;;;;;;7.91;79.12;99381.63;106701;1266;59385;-35
2023/11/07 06:14:58;;;;;;;6.90;2.40;;;;;;;7.96;79.02;99379.08;106671;1265;72254;-35
2023/11/07 06:17:26;;;;;;;4.30;2.50;;;;;;;8.07;78.72;99380.80;106700;1268;66539;-35
2023/11/07 06:19:53;;;;;;;5.70;2.40;;;;;;;8.10;78.69;99383.97;106627;1271;72707;-35
2023/11/07 06:22:21;;;;;;;7.40;2.90;;;;;;;8.09;78.71;99382.55;106698;1266;60063;-35
2023/11/07 06:24:48;;;;;;;4.40;2.30;;;;;;;8.09;78.67;99390.81;106712;1266;60070;-37
2023/11/07 06:27:16;;;;;;;4.50;2.60;;;;;;;8.14;78.46;99390.51;106616;1271;71869;-36
2023/11/07 06:29:44;;;;;;;4.50;2.50;;;;;;;8.22;78.23;99396.60;106644;1271;67619;-34
2023/11/07 06:32:13;;;;;;;4.80;2.60;;;;;;;8.25;78.30;99399.67;106630;1267;72681;-35
2023/11/07 06:34:41;;;;;;;5.10;2.60;;;;;;;8.26;78.13;99402.17;106595;1271;60086;-35
2023/11/07 06:37:09;;;;;;;5.60;2.60;;;;;;;8.27;78.18;99398.92;106622;1266;60070;-35
2023/11/07 06:39:37;;;;;;;5.80;3.10;;;;;;;8.34;77.95;99400.13;106569;1270;73092;-35
2023/11/07 06:42:05;;;;;;;7.80;2.70;;;;;;;8.44;77.74;99394.09;106621;1270;67901;-35
2023/11/07 06:44:33;;;;;;;4.40;2.70;;;;;;;8.49;77.50;99399.20;106618;1268;72516;-35
2023/11/07 06:47:03;;;;;;;3.80;2.70;;;;;;;8.51;77.34;99399.75;106499;1267;59501;-35
2023/11/07 06:49:31;;;;;;;5.10;2.30;;;;;;;8.54;77.19;99406.25;106531;1271;59348;-35
2023/11/07 06:51:59;;;;;;;5.30;2.40;;;;;;;8.59;76.79;99413.34;106513;1270;72092;-35
2023/11/07 06:54:27;;;;;;;5.80;2.50;;;;;;;8.70;76.72;99420.35;106670;1267;67869;-35
2023/11/07 06:56:54;;;;;;;4.80;2.50;;;;;;;8.80;76.51;99420.91;106673;1271;72678;-35
2023/11/07 06:59:22;;;;;;;6.50;2.50;;;;;;;8.84;76.15;99421.64;106699;1267;59719;-35
2023/11/07 07:01:51;;;;;;;4.60;2.50;;;;;;;8.86;76.00;99422.55;107041;1261;59550;-35
2023/11/07 07:04:19;;;;;;;4.00;2.50;;;;;;;8.90;75.95;99423.13;107026;1260;71799;-35
2023/11/07 07:06:46;;;;;;;3.90;2.20;;;;;;;9.01;75.76;99424.95;107024;1261;67833;-35
2023/11/07 07:09:15;;;;;;;5.20;2.60;;;;;;;9.13;75.46;99421.16;106902;1261;72710;-35
2023/11/07 07:11:43;;;;;;;7.10;3.00;;;;;;;9.19;74.89;99425.73;107070;1263;59601;-35
2023/11/07 07:14:10;;;;;;;5.30;2.90;;;;;;;9.22;74.42;99425.32;106902;1260;60049;-35
2023/11/07 07:16:38;;;;;;;4.80;2.40;;;;;;;9.24;74.76;99429.92;107023;1263;73092;-36
2023/11/07 07:19:07;;;;;;;7.00;2.60;;;;;;;9.28;74.49;99427.48;106888;1260;67324;-36
2023/11/07 07:21:35;;;;;;;5.10;2.80;;;;;;;9.39;74.38;99434.17;107041;1261;71509;-36
2023/11/07 07:24:21;;;;;;;4.90;2.60;;;;;;;9.49;73.99;99431.09;106878;1260;59476;-36
2023/11/07 07:26:50;;;;;;;4.90;2.70;;;;;;;9.54;73.61;99434.63;106904;1260;60077;-36
2023/11/07 07:29:18;;;;;;;4.80;2.60;;;;;;;9.58;73.48;99431.41;106977;1261;75016;-36
2023/11/07 07:31:46;;;;;;;4.60;2.20;;;;;;;9.63;73.10;99435.46;106859;1261;68058;-36
2023/11/07 07:34:13;;;;;;;6.30;2.70;;;;;;;9.70;72.81;99439.34;106922;1260;72783;-36
2023/11/07 07:36:44;;;;;;;8.10;2.50;;;;;;;9.82;72.46;99442.71;106870;1260;60073;-36
2023/11/07 07:39:27;;;;;;;6.50;2.70;;;;;;;9.89;71.85;99443.49;107017;1261;59602;-36
2023/11/07 07:42:00;;;;;;;6.20;2.20;;;;;;;9.92;71.81;99444.80;106968;1263;73064;-36
2023/11/07 07:44:28;;;;;;;10.10;2.50;;;;;;;9.96;71.60;99445.81;106960;1260;66683;-36
2023/11/07 07:47:00;;;;;;;4.70;2.10;;;;;;;10.02;71.19;99449.29;106907;1265;72806;-36
2023/11/07 07:49:30;;;;;;;6.40;2.80;;;;;;;10.13;70.53;99459.49;106931;1264;59172;-36
2023/11/07 07:51:59;;;;;;;4.10;2.70;;;;;;;10.18;70.44;99460.63;106904;1260;59586;-36
2023/11/07 07:54:28;;;;;;;5.90;2.40;;;;;;;10.20;70.32;99465.03;107068;1261;73083;-36
2023/11/07 07:57:17;;;;;;;6.70;3.00;;;;;;;10.24;70.35;99464.04;107052;1261;66964;-36
2023/11/07 07:59:45;;;;;;;5.60;3.00;;;;;;;10.29;70.26;99468.23;107088;1264;71520;-37
2023/11/07 08:02:13;;;;;;;6.20;2.80;;;;;;;10.40;69.48;99474.15;107057;1260;61696;-36
2023/11/07 08:04:41;;;;;;;9.50;3.10;;;;;;;10.48;68.97;99473.91;107074;1260;59744;-36
2023/11/07 08:07:09;;;;;;;5.00;2.90;;;;;;;10.53;69.08;99474.39;107014;1263;73102;-36
2023/11/07 08:09:40;;;;;;;5.10;2.80;;;;;;;10.57;69.25;99476.98;107075;1260;66308;-36
2023/11/07 08:12:10;;;;;;;5.60;2.80;;;;;;;10.62;68.75;99480.41;107001;1260;73693;-35
2023/11/07 08:14:38;;;;;;;4.20;2.40;;;;;;;10.69;68.42;99477.66;107025;1260;60487;-36
2023/11/07 08:17:05;;;;;;;7.50;2.80;;;;;;;10.76;67.85;99482.09;107131;1260;61860;-35
2023/11/07 08:19:35;;;;;;;5.80;2.60;;;;;;;10.85;67.76;99487.61;107140;1257;72510;-35
2023/11/07 08:22:06;;;;;;;6.10;2.80;;;;;;;10.89;67.02;99490.94;107138;1257;65823;-36
2023/11/07 08:24:35;;;;;;;5.40;2.70;;;;;;;10.93;67.51;99494.81;107147;1260;71472;-35
2023/11/07 08:27:03;;;;;;;5.90;2.60;;;;;;;10.99;67.71;99500.27;107089;1257;60193;-35
2023/11/07 08:29:31;;;;;;;6.80;2.40;;;;;;;11.06;67.85;99507.92;107143;1258;59735;-35
2023/11/07 08:31:58;;;;;;;6.60;2.80;;;;;;;11.19;66.80;99508.24;107204;1258;71837;-35
2023/11/07 08:34:32;;;;;;;7.40;2.90;;;;;;;11.28;66.60;99509.73;107211;1256;68086;-35
2023/11/07 08:37:00;;;;;;;5.00;2.60;;;;;;;11.32;65.86;99511.29;107165;1260;71779;-36
2023/11/07 08:39:40;;;;;;;7.00;2.70;;;;;;;11.33;66.01;99506.73;107132;1255;61231;-36
2023/11/07 08:42:08;;;;;;;8.00;2.70;;;;;;;11.40;66.24;99512.90;107193;1257;59777;-35
2023/11/07 08:44:36;;;;;;;6.00;2.50;;;;;;;11.45;65.94;99510.04;107240;1260;71879;-35
2023/11/07 08:47:04;;;;;;;7.90;2.70;;;;;;;11.56;65.17;99508.84;107199;1255;66736;-35
2023/11/07 08:49:32;;;;;;;6.00;2.90;;;;;;;11.67;64.90;99505.45;107175;1260;72824;-36
2023/11/07 08:52:00;;;;;;;4.50;2.60;;;;;;;11.76;64.85;99509.42;107319;1256;61057;-35
2023/11/07 08:54:27;;;;;;;6.90;2.90;;;;;;;11.84;63.82;99508.39;107241;1257;62639;-35
2023/11/07 08:56:55;;;;;;;5.50;2.50;;;;;;;11.90;63.44;99505.00;107238;1257;73431;-35
2023/11/07 08:59:23;;;;;;;4.80;2.70;;;;;;;11.95;63.04;99500.95;107257;1257;68852;-36
2023/11/07 09:01:53;;;;;;;6.40;2.40;;;;;;;11.99;62.31;99503.05;107222;1257;71833;-35
2023/11/07 09:04:21;;;;;;;6.50;2.40;;;;;;;12.05;62.69;99502.83;107230;1260;60482;-35
2023/11/07 09:06:49;;;;;;;5.50;2.30;;;;;;;12.12;63.09;99507.91;107210;1257;59952;-35
2023/11/07 09:09:16;;;;;;;6.30;2.60;;;;;;;12.27;62.37;99506.73;107131;1257;73418;-35
2023/11/07 09:11:45;;;;;;;6.10;2.50;;;;;;;12.40;61.33;99506.36;107175;1258;66646;-35
2023/11/07 09:14:16;;;;;;;5.50;2.40;;;;;;;12.46;61.04;99503.50;107205;1258;74802;-35
2023/11/07 09:16:46;;;;;;;7.30;2.10;;;;;;;12.53;60.94;99510.66;107147;1260;60184;-36
2023/11/07 09:19:14;;;;;;;8.80;2.30;;;;;;;12.61;60.19;99511.23;107277;1257;59501;-35
2023/11/07 09:21:43;;;;;;;5.10;2.50;;;;;;;12.67;60.39;99506.71;107167;1257;71836;-35
2023/11/07 09:24:10;;;;;;;5.40;2.20;;;;;;;12.76;60.60;99504.41;107218;1260;67774;-35
2023/11/07 09:26:38;;;;;;;6.70;2.50;;;;;;;12.84;59.72;99502.82;107280;1257;71557;-35
2023/11/07 09:29:07;;;;;;;8.30;2.50;;;;;;;12.90;59.05;99500.63;107284;1257;60990;-35
2023/11/07 09:31:35;;;;;;;4.70;1.90;;;;;;;12.97;59.04;99496.04;107250;1257;59621;-36
2023/11/07 09:34:03;;;;;;;5.00;1.90;;;;;;;13.05;57.93;99489.38;107369;1257;71995;-36
2023/11/07 09:36:31;;;;;;;7.30;2.40;;;;;;;13.17;57.25;99494.51;107321;1257;66052;-36
2023/11/07 09:38:59;;;;;;;5.80;2.00;;;;;;;13.25;57.10;99490.23;107245;1256;75073;-35
2023/11/07 09:41:27;;;;;;;6.80;2.20;;;;;;;13.33;56.55;99498.41;107218;1256;61063;-35
2023/11/07 09:43:55;;;;;;;4.50;2.20;;;;;;;13.43;56.44;99494.53;107244;1257;60986;-35
2023/11/07 09:46:22;;;;;;;5.10;2.20;;;;;;;13.53;55.10;99497.98;107177;1255;73672;-35
2023/11/07 09:48:53;;;;;;;6.60;2.60;;;;;;;13.61;54.80;99496.41;107282;1260;67198;-36
2023/11/07 09:51:21;;;;;;;6.20;2.30;;;;;;;13.69;54.62;99499.90;107160;1255;71798;-36
2023/11/07 09:53:50;;;;;;;5.70;2.00;;;;;;;13.76;54.48;99496.77;107181;1257;59597;-36
2023/11/07 09:56:18;;;;;;;7.10;1.80;;;;;;;13.85;53.47;99497.70;107132;1258;60671;-36
2023/11/07 09:58:47;;;;;;;4.80;2.10;;;;;;;13.91;52.73;99494.25;107013;1255;73236;-36
2023/11/07 10:01:15;;;;;;;5.20;2.00;;;;;;;14.02;52.72;99502.48;107227;1258;68100;-35
2023/11/07 10:03:48;;;;;;;4.70;2.10;;;;;;;14.10;52.33;99497.96;107315;1257;73332;-36
2023/11/07 10:06:17;;;;;;;6.20;2.40;;;;;;;14.21;52.43;99504.02;107240;1260;61418;-36
2023/11/07 10:08:45;;;;;;;4.60;2.10;;;;;;;14.32;52.74;99503.79;107233;1255;60601;-36
2023/11/07 10:11:13;;;;;;;5.00;2.10;;;;;;;14.45;51.94;99501.86;107255;1255;72671;-36
2023/11/07 10:14:02;;;;;;;5.20;1.60;;;;;;;14.56;50.28;99499.05;107148;1256;69042;-36
2023/11/07 10:16:41;;;;;;;4.20;1.80;;;;;;;14.62;50.18;99495.64;107251;1257;71470;-36
2023/11/07 10:19:13;;;;;;;4.80;1.90;;;;;;;14.63;50.29;99492.44;107219;1256;62348;-35
2023/11/07 10:21:41;;;;;;;5.00;1.90;;;;;;;14.66;51.07;99496.73;107209;1255;60543;-36
2023/11/07 10:24:09;;;;;;;4.40;1.80;;;;;;;14.72;50.84;99496.00;107336;1259;73820;-36
2023/11/07 10:27:02;;;;;;;5.60;1.90;;;;;;;14.80;50.42;99496.41;107237;1255;66880;-36
2023/11/07 10:29:30;;;;;;;4.50;2.20;;;;;;;14.91;49.41;99494.73;107317;1255;72809;-35
2023/11/07 10:32:09;;;;;;;4.90;1.90;;;;;;;14.98;48.67;99499.69;107066;1256;61013;-36
2023/11/07 10:34:39;;;;;;;3.10;1.60;;;;;;;15.03;47.76;99496.96;107354;1260;60993;-36
2023/11/07 10:37:07;;;;;;;4.30;1.80;;;;;;;15.07;48.10;99499.86;107248;1256;76076;-36
2023/11/07 10:39:35;;;;;;;3.50;1.40;;;;;;;15.12;47.34;99492.63;107289;1255;68913;-36
2023/11/07 10:42:17;;;;;;;4.10;1.70;;;;;;;15.19;47.50;99498.11;107179;1255;74813;-36
2023/11/07 10:44:45;;;;;;;4.10;1.70;;;;;;;15.27;47.80;99501.48;107106;1260;60989;-36
2023/11/07 10:47:13;;;;;;;3.40;1.60;;;;;;;15.34;47.99;99497.82;107141;1256;62215;-36
2023/11/07 10:49:44;;;;;;;3.80;1.70;;;;;;;15.38;47.52;99496.89;107175;1256;76121;-36
2023/11/07 10:52:11;;;;;;;11.10;2.60;;;;;;;15.40;46.67;99493.38;107205;1258;70232;-36
2023/11/07 10:54:39;;;;;;;3.60;1.60;;;;;;;15.41;46.42;99489.16;107251;1257;71808;-36
2023/11/07 10:57:09;;;;;;;4.00;1.70;;;;;;;15.41;46.27;99489.79;107351;1256;60291;-36
2023/11/07 10:59:41;;;;;;;2.50;1.50;;;;;;;15.41;46.04;99491.52;107271;1256;60432;-36
2023/11/07 11:02:09;;;;;;;2.80;1.60;;;;;;;15.41;46.31;99490.25;107259;1255;73327;-36
2023/11/07 11:04:37;;;;;;;2.90;1.60;;;;;;;15.43;47.13;99486.98;107226;1256;68711;-37
2023/11/07 11:07:07;;;;;;;3.70;1.90;;;;;;;15.51;46.56;99492.64;107293;1256;72702;-36
2023/11/07 11:09:35;;;;;;;10.10;2.20;;;;;;;15.58;46.80;99487.51;107428;1258;62353;-36
2023/11/07 11:12:03;;;;;;;4.80;1.70;;;;;;;15.69;46.33;99490.39;107229;1258;60474;-36
2023/11/07 11:14:31;;;;;;;4.50;1.70;;;;;;;15.78;45.88;99479.85;107288;1256;75188;-37
2023/11/07 11:17:24;;;;;;;3.40;1.80;;;;;;;15.83;45.71;99481.25;107373;1255;69747;-36
2023/11/07 11:20:02;;;;;;;3.20;1.50;;;;;;;15.89;46.26;99474.30;107203;1255;72698;-36
2023/11/07 11:22:41;;;;;;;2.60;1.40;;;;;;;15.99;45.78;99469.61;107184;1256;60636;-37
2023/11/07 11:25:15;;;;;;;2.60;1.40;;;;;;;16.07;45.16;99471.94;107294;1260;60946;-36
2023/11/07 11:27:48;;;;;;;4.80;1.90;;;;;;;16.10;45.28;99465.91;107376;1258;74990;-36
2023/11/07 11:30:16;;;;;;;5.40;1.70;;;;;;;16.17;45.42;99472.77;107104;1260;67593;-36
2023/11/07 11:32:47;;;;;;;3.00;1.60;;;;;;;16.26;45.21;99469.00;107103;1255;72713;-36
2023/11/07 11:35:17;;;;;;;3.40;1.80;;;;;;;16.38;45.24;99467.48;107096;1255;62170;-37
2023/11/07 11:38:11;;;;;;;3.50;1.70;;;;;;;16.56;45.07;99466.66;107280;1255;60963;-36
2023/11/07 11:40:56;;;;;;;4.20;1.60;;;;;;;16.71;44.33;99465.92;107175;1255;73889;-36